createdAt,value
2023-02-22T00:00:05.471Z,1012.91
2023-02-22T00:01:05.474Z,1012.93
2023-02-22T00:02:05.533Z,1012.90
2023-02-22T00:03:05.548Z,1012.96
2023-02-22T00:04:05.464Z,1012.95
2023-02-22T00:05:05.470Z,1012.91
2023-02-22T00:06:05.458Z,1012.93
2023-02-22T00:07:05.459Z,1012.93
2023-02-22T00:08:05.458Z,1012.93
2023-02-22T00:09:05.448Z,1012.91
2023-02-22T00:10:05.449Z,1012.91
2023-02-22T00:11:05.457Z,1012.90
2023-02-22T00:12:05.461Z,1012.93
2023-02-22T00:13:05.475Z,1012.89
2023-02-22T00:14:05.446Z,1012.94
2023-02-22T00:15:05.449Z,1012.92
2023-02-22T00:16:05.475Z,1012.89
2023-02-22T00:17:05.462Z,1012.90
2023-02-22T00:18:05.450Z,1012.85
2023-02-22T00:19:05.432Z,1012.84
2023-02-22T00:20:05.431Z,1012.83
2023-02-22T00:21:05.428Z,1012.89
2023-02-22T00:22:05.433Z,1012.84
2023-02-22T00:23:05.422Z,1012.83
2023-02-22T00:24:05.423Z,1012.86
2023-02-22T00:25:05.420Z,1012.83
2023-02-22T00:26:05.418Z,1012.87
2023-02-22T00:27:05.412Z,1012.84
2023-02-22T00:28:05.414Z,1012.84
2023-02-22T00:29:05.431Z,1012.85
2023-02-22T00:30:05.597Z,1012.85
2023-02-22T00:31:05.406Z,1012.81
2023-02-22T00:32:05.518Z,1012.80
2023-02-22T00:33:05.398Z,1012.78
2023-02-22T00:34:05.405Z,1012.78
2023-02-22T00:35:05.394Z,1012.79
2023-02-22T00:36:05.404Z,1012.83
2023-02-22T00:37:05.389Z,1012.80
2023-02-22T00:38:05.396Z,1012.76
2023-02-22T00:39:05.387Z,1012.78
2023-02-22T00:40:05.387Z,1012.78
2023-02-22T00:41:05.385Z,1012.73
2023-02-22T00:42:05.389Z,1012.79
2023-02-22T00:43:05.375Z,1012.74
2023-02-22T00:44:05.384Z,1012.70
2023-02-22T00:45:05.408Z,1012.71
2023-02-22T00:46:05.567Z,1012.72
2023-02-22T00:47:05.372Z,1012.71
2023-02-22T00:48:05.375Z,1012.74
2023-02-22T00:49:05.388Z,1012.77
2023-02-22T00:50:05.366Z,1012.76
2023-02-22T00:51:05.360Z,1012.75
2023-02-22T00:52:05.361Z,1012.77
2023-02-22T00:53:05.353Z,1012.82
2023-02-22T00:54:05.359Z,1012.79
2023-02-22T00:55:05.352Z,1012.77
2023-02-22T00:56:05.346Z,1012.78
2023-02-22T00:57:05.345Z,1012.71
2023-02-22T00:58:05.344Z,1012.71
2023-02-22T00:59:05.339Z,1012.75
2023-02-22T01:00:05.349Z,1012.76
2023-02-22T01:01:05.388Z,1012.74
2023-02-22T01:02:05.356Z,1012.77
2023-02-22T01:03:05.336Z,1012.78
2023-02-22T01:04:05.332Z,1012.79
2023-02-22T01:05:05.325Z,1012.80
2023-02-22T01:06:05.325Z,1012.83
2023-02-22T01:07:05.320Z,1012.83
2023-02-22T01:08:05.322Z,1012.83
2023-02-22T01:09:05.321Z,1012.82
2023-02-22T01:10:05.323Z,1012.79
2023-02-22T01:11:05.320Z,1012.83
2023-02-22T01:12:05.312Z,1012.83
2023-02-22T01:13:05.304Z,1012.80
2023-02-22T01:14:05.304Z,1012.81
2023-02-22T01:15:05.302Z,1012.82
2023-02-22T01:16:05.297Z,1012.75
2023-02-22T01:17:05.321Z,1012.78
2023-02-22T01:18:05.330Z,1012.77
2023-02-22T01:19:05.293Z,1012.79
2023-02-22T01:20:05.294Z,1012.75
2023-02-22T01:21:05.288Z,1012.78
2023-02-22T01:22:05.286Z,1012.78
2023-02-22T01:23:05.281Z,1012.76
2023-02-22T01:24:05.281Z,1012.71
2023-02-22T01:25:05.283Z,1012.73
2023-02-22T01:26:05.278Z,1012.76
2023-02-22T01:27:05.275Z,1012.71
2023-02-22T01:28:05.281Z,1012.79
2023-02-22T01:29:05.264Z,1012.72
2023-02-22T01:30:05.411Z,1012.74
2023-02-22T01:31:05.316Z,1012.77
2023-02-22T01:32:05.322Z,1012.73
2023-02-22T01:33:05.281Z,1012.74
2023-02-22T01:34:05.260Z,1012.72
2023-02-22T01:35:05.273Z,1012.72
2023-02-22T01:36:05.255Z,1012.69
2023-02-22T01:37:05.257Z,1012.65
2023-02-22T01:38:05.249Z,1012.71
2023-02-22T01:39:05.244Z,1012.70
2023-02-22T01:40:05.240Z,1012.68
2023-02-22T01:41:05.243Z,1012.66
2023-02-22T01:42:05.235Z,1012.66
2023-02-22T01:43:05.226Z,1012.72
2023-02-22T01:44:05.234Z,1012.71
2023-02-22T01:45:05.221Z,1012.67
2023-02-22T01:46:05.335Z,1012.67
2023-02-22T01:47:05.222Z,1012.64
2023-02-22T01:48:05.215Z,1012.65
2023-02-22T01:49:05.259Z,1012.65
2023-02-22T01:50:05.219Z,1012.65
2023-02-22T01:51:05.203Z,1012.63
2023-02-22T01:52:05.209Z,1012.62
2023-02-22T01:53:05.206Z,1012.58
2023-02-22T01:54:05.202Z,1012.59
2023-02-22T01:55:05.192Z,1012.59
2023-02-22T01:56:05.205Z,1012.65
2023-02-22T01:57:05.189Z,1012.61
2023-02-22T01:58:05.202Z,1012.64
2023-02-22T01:59:05.185Z,1012.60
2023-02-22T02:00:05.184Z,1012.63
2023-02-22T02:01:05.172Z,1012.65
2023-02-22T02:02:05.184Z,1012.58
2023-02-22T02:03:05.169Z,1012.59
2023-02-22T02:04:05.201Z,1012.64
2023-02-22T02:05:05.243Z,1012.60
2023-02-22T02:06:05.160Z,1012.59
2023-02-22T02:07:05.161Z,1012.60
2023-02-22T02:08:05.157Z,1012.64
2023-02-22T02:09:05.155Z,1012.59
2023-02-22T02:10:05.149Z,1012.65
2023-02-22T02:11:05.228Z,1012.60
2023-02-22T02:12:05.149Z,1012.60
2023-02-22T02:13:05.164Z,1012.60
2023-02-22T02:14:05.137Z,1012.60
2023-02-22T02:15:05.149Z,1012.63
2023-02-22T02:16:05.160Z,1012.59
2023-02-22T02:17:05.251Z,1012.59
2023-02-22T02:18:05.127Z,1012.58
2023-02-22T02:19:05.137Z,1012.57
2023-02-22T02:20:05.130Z,1012.56
2023-02-22T02:21:05.148Z,1012.55
2023-02-22T02:22:05.115Z,1012.57
2023-02-22T02:23:05.124Z,1012.53
2023-02-22T02:24:05.117Z,1012.53
2023-02-22T02:25:05.139Z,1012.56
2023-02-22T02:26:05.109Z,1012.56
2023-02-22T02:27:05.104Z,1012.56
2023-02-22T02:28:05.100Z,1012.52
2023-02-22T02:29:05.099Z,1012.52
2023-02-22T02:30:05.170Z,1012.56
2023-02-22T02:31:05.094Z,1012.56
2023-02-22T02:32:05.214Z,1012.55
2023-02-22T02:33:05.088Z,1012.54
2023-02-22T02:34:05.099Z,1012.58
2023-02-22T02:35:05.093Z,1012.57
2023-02-22T02:36:05.080Z,1012.53
2023-02-22T02:37:05.094Z,1012.52
2023-02-22T02:38:05.092Z,1012.49
2023-02-22T02:39:05.072Z,1012.51
2023-02-22T02:40:05.122Z,1012.48
2023-02-22T02:41:05.061Z,1012.47
2023-02-22T02:42:05.060Z,1012.45
2023-02-22T02:43:05.084Z,1012.48
2023-02-22T02:44:05.050Z,1012.47
2023-02-22T02:45:05.050Z,1012.47
2023-02-22T02:46:05.043Z,1012.46
2023-02-22T02:47:05.053Z,1012.47
2023-02-22T02:48:05.035Z,1012.54
2023-02-22T02:49:05.036Z,1012.49
2023-02-22T02:50:05.034Z,1012.49
2023-02-22T02:51:05.036Z,1012.49
2023-02-22T02:52:05.037Z,1012.49
2023-02-22T02:53:05.043Z,1012.47
2023-02-22T02:54:05.019Z,1012.48
2023-02-22T02:55:05.044Z,1012.46
2023-02-22T02:56:05.012Z,1012.47
2023-02-22T02:57:05.014Z,1012.48
2023-02-22T02:58:05.009Z,1012.52
2023-02-22T02:59:05.016Z,1012.49
2023-02-22T03:00:05.000Z,1012.52
2023-02-22T03:01:04.997Z,1012.53
2023-02-22T03:02:04.996Z,1012.52
2023-02-22T03:03:04.991Z,1012.48
2023-02-22T03:04:04.997Z,1012.54
2023-02-22T03:05:04.991Z,1012.52
2023-02-22T03:06:04.978Z,1012.49
2023-02-22T03:07:05.009Z,1012.51
2023-02-22T03:08:04.973Z,1012.51
2023-02-22T03:09:05.000Z,1012.55
2023-02-22T03:10:04.969Z,1012.48
2023-02-22T03:11:04.970Z,1012.51
2023-02-22T03:12:04.962Z,1012.48
2023-02-22T03:13:04.960Z,1012.45
2023-02-22T03:14:04.955Z,1012.44
2023-02-22T03:15:04.957Z,1012.41
2023-02-22T03:16:05.033Z,1012.43
2023-02-22T03:17:04.946Z,1012.46
2023-02-22T03:18:04.943Z,1012.49
2023-02-22T03:19:04.945Z,1012.45
2023-02-22T03:20:04.953Z,1012.49
2023-02-22T03:21:04.937Z,1012.49
2023-02-22T03:22:04.929Z,1012.43
2023-02-22T03:23:04.931Z,1012.43
2023-02-22T03:24:04.924Z,1012.41
2023-02-22T03:25:04.945Z,1012.39
2023-02-22T03:26:04.916Z,1012.37
2023-02-22T03:27:04.916Z,1012.34
2023-02-22T03:28:04.911Z,1012.36
2023-02-22T03:29:04.913Z,1012.34
2023-02-22T03:30:04.948Z,1012.32
2023-02-22T03:31:04.938Z,1012.32
2023-02-22T03:32:04.945Z,1012.34
2023-02-22T03:33:04.897Z,1012.36
2023-02-22T03:34:04.889Z,1012.38
2023-02-22T03:35:04.892Z,1012.36
2023-02-22T03:36:04.884Z,1012.36
2023-02-22T03:37:04.900Z,1012.39
2023-02-22T03:38:04.883Z,1012.37
2023-02-22T03:39:04.881Z,1012.36
2023-02-22T03:40:04.872Z,1012.36
2023-02-22T03:41:04.893Z,1012.35
2023-02-22T03:42:04.869Z,1012.39
2023-02-22T03:43:04.879Z,1012.37
2023-02-22T03:44:04.863Z,1012.39
2023-02-22T03:45:04.861Z,1012.39
2023-02-22T03:46:04.875Z,1012.44
2023-02-22T03:47:04.853Z,1012.48
2023-02-22T03:48:04.846Z,1012.45
2023-02-22T03:49:04.843Z,1012.47
2023-02-22T03:50:04.855Z,1012.42
2023-02-22T03:51:04.838Z,1012.43
2023-02-22T03:52:04.832Z,1012.43
2023-02-22T03:53:04.854Z,1012.43
2023-02-22T03:54:04.815Z,1012.43
2023-02-22T03:55:04.820Z,1012.47
2023-02-22T03:56:04.821Z,1012.48
2023-02-22T03:57:04.841Z,1012.46
2023-02-22T03:58:04.815Z,1012.48
2023-02-22T03:59:04.836Z,1012.46
2023-02-22T04:00:04.808Z,1012.49
2023-02-22T04:01:04.810Z,1012.50
2023-02-22T04:02:04.806Z,1012.49
2023-02-22T04:03:04.844Z,1012.52
2023-02-22T04:04:04.792Z,1012.51
2023-02-22T04:05:04.789Z,1012.53
2023-02-22T04:06:04.793Z,1012.49
2023-02-22T04:07:04.788Z,1012.50
2023-02-22T04:08:04.780Z,1012.49
2023-02-22T04:09:04.786Z,1012.48
2023-02-22T04:10:04.772Z,1012.53
2023-02-22T04:11:04.770Z,1012.51
2023-02-22T04:12:04.782Z,1012.51
2023-02-22T04:13:04.803Z,1012.51
2023-02-22T04:14:04.754Z,1012.55
2023-02-22T04:15:04.756Z,1012.50
2023-02-22T04:16:04.807Z,1012.52
2023-02-22T04:17:04.747Z,1012.47
2023-02-22T04:18:04.741Z,1012.49
2023-02-22T04:19:04.743Z,1012.49
2023-02-22T04:20:04.739Z,1012.50
2023-02-22T04:21:04.740Z,1012.49
2023-02-22T04:22:04.829Z,1012.49
2023-02-22T04:23:04.732Z,1012.49
2023-02-22T04:24:04.728Z,1012.47
2023-02-22T04:25:04.728Z,1012.48
2023-02-22T04:26:04.714Z,1012.48
2023-02-22T04:27:04.720Z,1012.51
2023-02-22T04:28:04.716Z,1012.48
2023-02-22T04:29:04.733Z,1012.50
2023-02-22T04:30:04.706Z,1012.46
2023-02-22T04:31:04.749Z,1012.47
2023-02-22T04:32:04.754Z,1012.47
2023-02-22T04:33:04.701Z,1012.46
2023-02-22T04:34:04.693Z,1012.49
2023-02-22T04:35:04.694Z,1012.46
2023-02-22T04:36:04.694Z,1012.41
2023-02-22T04:37:04.688Z,1012.44
2023-02-22T04:38:04.674Z,1012.49
2023-02-22T04:39:04.676Z,1012.47
2023-02-22T04:40:04.728Z,1012.50
2023-02-22T04:41:04.676Z,1012.42
2023-02-22T04:42:04.665Z,1012.50
2023-02-22T04:43:04.659Z,1012.44
2023-02-22T04:44:04.663Z,1012.47
2023-02-22T04:45:04.684Z,1012.47
2023-02-22T04:46:04.821Z,1012.43
2023-02-22T04:47:04.655Z,1012.44
2023-02-22T04:48:04.641Z,1012.46
2023-02-22T04:49:04.641Z,1012.42
2023-02-22T04:50:04.632Z,1012.43
2023-02-22T04:51:04.644Z,1012.39
2023-02-22T04:52:04.632Z,1012.37
2023-02-22T04:53:04.630Z,1012.36
2023-02-22T04:54:04.635Z,1012.39
2023-02-22T04:55:04.621Z,1012.40
2023-02-22T04:56:04.625Z,1012.39
2023-02-22T04:57:04.617Z,1012.42
2023-02-22T04:58:04.604Z,1012.41
2023-02-22T04:59:04.608Z,1012.41
2023-02-22T05:00:04.667Z,1012.39
2023-02-22T05:01:04.634Z,1012.39
2023-02-22T05:02:04.593Z,1012.42
2023-02-22T05:03:04.601Z,1012.41
2023-02-22T05:04:04.591Z,1012.39
2023-02-22T05:05:04.664Z,1012.41
2023-02-22T05:06:04.584Z,1012.39
2023-02-22T05:07:04.582Z,1012.34
2023-02-22T05:08:04.578Z,1012.36
2023-02-22T05:09:04.573Z,1012.36
2023-02-22T05:10:04.571Z,1012.35
2023-02-22T05:11:04.569Z,1012.35
2023-02-22T05:12:04.562Z,1012.31
2023-02-22T05:13:04.560Z,1012.35
2023-02-22T05:14:04.557Z,1012.38
2023-02-22T05:15:04.558Z,1012.32
2023-02-22T05:16:04.575Z,1012.38
2023-02-22T05:17:04.572Z,1012.43
2023-02-22T05:18:04.540Z,1012.45
2023-02-22T05:19:04.538Z,1012.41
2023-02-22T05:20:04.536Z,1012.44
2023-02-22T05:21:04.532Z,1012.38
2023-02-22T05:22:04.523Z,1012.36
2023-02-22T05:23:04.530Z,1012.36
2023-02-22T05:24:04.524Z,1012.35
2023-02-22T05:25:04.521Z,1012.32
2023-02-22T05:26:04.515Z,1012.32
2023-02-22T05:27:04.515Z,1012.36
2023-02-22T05:28:04.507Z,1012.43
2023-02-22T05:29:04.519Z,1012.40
2023-02-22T05:30:04.496Z,1012.41
2023-02-22T05:31:04.526Z,1012.39
2023-02-22T05:32:04.686Z,1012.42
2023-02-22T05:33:04.529Z,1012.35
2023-02-22T05:34:04.491Z,1012.40
2023-02-22T05:35:04.486Z,1012.40
2023-02-22T05:36:04.485Z,1012.35
2023-02-22T05:37:04.479Z,1012.37
2023-02-22T05:38:04.489Z,1012.36
2023-02-22T05:39:04.479Z,1012.37
2023-02-22T05:40:04.489Z,1012.36
2023-02-22T05:41:04.472Z,1012.40
2023-02-22T05:42:04.464Z,1012.32
2023-02-22T05:43:04.459Z,1012.34
2023-02-22T05:44:04.453Z,1012.33
2023-02-22T05:45:04.459Z,1012.33
2023-02-22T05:46:04.447Z,1012.33
2023-02-22T05:47:04.458Z,1012.31
2023-02-22T05:48:04.442Z,1012.32
2023-02-22T05:49:04.488Z,1012.34
2023-02-22T05:50:04.504Z,1012.37
2023-02-22T05:51:04.432Z,1012.36
2023-02-22T05:52:04.432Z,1012.40
2023-02-22T05:53:04.429Z,1012.42
2023-02-22T05:54:04.475Z,1012.39
2023-02-22T05:55:04.427Z,1012.48
2023-02-22T05:56:04.414Z,1012.44
2023-02-22T05:57:04.407Z,1012.48
2023-02-22T05:58:04.406Z,1012.47
2023-02-22T05:59:04.408Z,1012.50
2023-02-22T06:00:04.400Z,1012.44
2023-02-22T06:01:04.407Z,1012.47
2023-02-22T06:02:04.513Z,1012.44
2023-02-22T06:03:04.383Z,1012.43
2023-02-22T06:04:04.385Z,1012.44
2023-02-22T06:05:04.408Z,1012.47
2023-02-22T06:06:04.375Z,1012.47
2023-02-22T06:07:04.374Z,1012.52
2023-02-22T06:08:04.373Z,1012.50
2023-02-22T06:09:04.372Z,1012.58
2023-02-22T06:10:04.362Z,1012.52
2023-02-22T06:11:04.379Z,1012.62
2023-02-22T06:12:04.355Z,1012.62
2023-02-22T06:13:04.358Z,1012.57
2023-02-22T06:14:04.350Z,1012.57
2023-02-22T06:15:04.350Z,1012.59
2023-02-22T06:16:04.375Z,1012.55
2023-02-22T06:17:04.334Z,1012.53
2023-02-22T06:18:04.336Z,1012.56
2023-02-22T06:19:04.328Z,1012.52
2023-02-22T06:20:04.322Z,1012.52
2023-02-22T06:21:04.357Z,1012.50
2023-02-22T06:22:04.318Z,1012.53
2023-02-22T06:23:04.321Z,1012.54
2023-02-22T06:24:04.315Z,1012.55
2023-02-22T06:25:04.303Z,1012.61
2023-02-22T06:26:04.340Z,1012.63
2023-02-22T06:27:04.300Z,1012.63
2023-02-22T06:28:04.339Z,1012.70
2023-02-22T06:29:04.290Z,1012.70
2023-02-22T06:30:04.316Z,1012.71
2023-02-22T06:31:04.388Z,1012.69
2023-02-22T06:32:04.429Z,1012.72
2023-02-22T06:33:04.275Z,1012.70
2023-02-22T06:34:04.298Z,1012.69
2023-02-22T06:35:04.290Z,1012.71
2023-02-22T06:36:04.267Z,1012.66
2023-02-22T06:37:04.286Z,1012.69
2023-02-22T06:38:04.267Z,1012.72
2023-02-22T06:39:04.264Z,1012.75
2023-02-22T06:40:05.768Z,1012.77
2023-02-22T06:41:04.247Z,1012.80
2023-02-22T06:42:04.272Z,1012.83
2023-02-22T06:43:04.241Z,1012.87
2023-02-22T06:44:04.240Z,1012.83
2023-02-22T06:45:04.236Z,1012.86
2023-02-22T06:46:04.310Z,1012.82
2023-02-22T06:47:04.229Z,1012.87
2023-02-22T06:48:04.226Z,1012.85
2023-02-22T06:49:04.219Z,1012.81
2023-02-22T06:50:04.223Z,1012.85
2023-02-22T06:51:04.213Z,1012.86
2023-02-22T06:52:04.210Z,1012.86
2023-02-22T06:53:04.344Z,1012.85
2023-02-22T06:54:04.205Z,1012.90
2023-02-22T06:55:04.199Z,1012.88
2023-02-22T06:56:04.205Z,1012.89
2023-02-22T06:57:04.199Z,1012.82
2023-02-22T06:58:04.194Z,1012.90
2023-02-22T06:59:04.185Z,1012.88
2023-02-22T07:00:04.190Z,1012.88
2023-02-22T07:01:04.346Z,1012.94
2023-02-22T07:02:04.177Z,1012.93
2023-02-22T07:03:04.250Z,1012.95
2023-02-22T07:04:04.189Z,1012.93
2023-02-22T07:05:04.167Z,1012.90
2023-02-22T07:06:04.175Z,1012.96
2023-02-22T07:07:04.169Z,1012.97
2023-02-22T07:08:04.175Z,1012.94
2023-02-22T07:09:04.191Z,1012.97
2023-02-22T07:10:04.158Z,1013.00
2023-02-22T07:11:04.155Z,1012.99
2023-02-22T07:12:04.154Z,1013.00
2023-02-22T07:13:04.146Z,1012.97
2023-02-22T07:14:04.151Z,1012.96
2023-02-22T07:15:04.152Z,1012.96
2023-02-22T07:16:04.161Z,1012.92
2023-02-22T07:17:04.134Z,1012.93
2023-02-22T07:18:04.132Z,1012.94
2023-02-22T07:19:04.132Z,1012.94
2023-02-22T07:20:04.127Z,1013.01
2023-02-22T07:21:04.129Z,1012.99
2023-02-22T07:22:04.119Z,1013.00
2023-02-22T07:23:04.128Z,1013.01
2023-02-22T07:24:05.522Z,1013.04
2023-02-22T07:25:04.127Z,1013.01
2023-02-22T07:26:04.110Z,1013.02
2023-02-22T07:27:04.099Z,1013.04
2023-02-22T07:28:04.111Z,1013.01
2023-02-22T07:29:04.098Z,1013.06
2023-02-22T07:30:04.094Z,1013.05
2023-02-22T07:31:04.102Z,1013.03
2023-02-22T07:32:04.115Z,1013.03
2023-02-22T07:33:04.144Z,1013.02
2023-02-22T07:34:04.086Z,1012.98
2023-02-22T07:35:04.076Z,1012.98
2023-02-22T07:36:04.078Z,1012.97
2023-02-22T07:37:04.086Z,1013.02
2023-02-22T07:38:04.072Z,1013.01
2023-02-22T07:39:04.082Z,1013.01
2023-02-22T07:40:04.070Z,1013.01
2023-02-22T07:41:04.084Z,1013.05
2023-02-22T07:42:04.063Z,1013.06
2023-02-22T07:43:06.533Z,1013.05
2023-02-22T07:44:04.083Z,1013.03
2023-02-22T07:45:04.047Z,1013.02
2023-02-22T07:46:04.071Z,1013.01
2023-02-22T07:47:04.045Z,1013.04
2023-02-22T07:48:04.061Z,1013.00
2023-02-22T07:49:04.045Z,1013.04
2023-02-22T07:50:04.053Z,1013.00
2023-02-22T07:51:04.073Z,1013.01
2023-02-22T07:52:04.038Z,1012.99
2023-02-22T07:53:04.038Z,1012.98
2023-02-22T07:54:04.030Z,1012.99
2023-02-22T07:55:04.038Z,1013.00
2023-02-22T07:56:04.025Z,1013.01
2023-02-22T07:57:04.034Z,1013.02
2023-02-22T07:58:04.010Z,1013.03
2023-02-22T07:59:04.008Z,1012.97
2023-02-22T08:00:04.011Z,1013.03
2023-02-22T08:01:04.010Z,1013.01
2023-02-22T08:02:04.006Z,1013.00
2023-02-22T08:03:04.021Z,1013.05
2023-02-22T08:04:04.000Z,1013.03
2023-02-22T08:05:03.994Z,1013.02
2023-02-22T08:06:03.999Z,1013.07
2023-02-22T08:07:04.001Z,1013.03
2023-02-22T08:08:03.990Z,1013.03
2023-02-22T08:09:03.982Z,1013.02
2023-02-22T08:10:03.986Z,1013.01
2023-02-22T08:11:03.988Z,1013.00
2023-02-22T08:12:03.979Z,1013.01
2023-02-22T08:13:04.015Z,1012.99
2023-02-22T08:14:03.975Z,1013.05
2023-02-22T08:15:03.970Z,1013.02
2023-02-22T08:16:03.972Z,1013.06
2023-02-22T08:17:04.073Z,1013.06
2023-02-22T08:18:03.967Z,1013.07
2023-02-22T08:19:03.958Z,1013.04
2023-02-22T08:20:03.959Z,1013.07
2023-02-22T08:21:03.959Z,1013.09
2023-02-22T08:22:04.002Z,1013.09
2023-02-22T08:23:03.946Z,1013.11
2023-02-22T08:24:03.948Z,1013.10
2023-02-22T08:25:03.948Z,1013.07
2023-02-22T08:26:03.948Z,1013.07
2023-02-22T08:27:03.935Z,1013.07
2023-02-22T08:28:03.950Z,1013.06
2023-02-22T08:29:03.964Z,1013.08
2023-02-22T08:30:03.935Z,1013.07
2023-02-22T08:31:03.928Z,1013.11
2023-02-22T08:32:04.076Z,1013.06
2023-02-22T08:33:04.190Z,1013.05
2023-02-22T08:34:03.922Z,1013.11
2023-02-22T08:35:03.918Z,1013.11
2023-02-22T08:36:03.920Z,1013.10
2023-02-22T08:37:03.915Z,1013.06
2023-02-22T08:38:03.926Z,1013.10
2023-02-22T08:39:03.906Z,1013.10
2023-02-22T08:40:03.908Z,1013.08
2023-02-22T08:41:03.911Z,1013.08
2023-02-22T08:42:03.905Z,1013.06
2023-02-22T08:43:03.907Z,1013.07
2023-02-22T08:44:03.894Z,1013.03
2023-02-22T08:45:03.911Z,1013.04
2023-02-22T08:46:03.962Z,1013.06
2023-02-22T08:47:03.887Z,1013.04
2023-02-22T08:48:03.914Z,1013.10
2023-02-22T08:49:03.875Z,1013.06
2023-02-22T08:50:03.877Z,1013.06
2023-02-22T08:51:03.874Z,1013.10
2023-02-22T08:52:03.876Z,1013.06
2023-02-22T08:53:03.872Z,1013.09
2023-02-22T08:54:03.867Z,1013.07
2023-02-22T08:55:03.867Z,1013.09
2023-02-22T08:56:03.861Z,1013.10
2023-02-22T08:57:03.870Z,1013.09
2023-02-22T08:58:03.887Z,1013.12
2023-02-22T08:59:03.857Z,1013.12
2023-02-22T09:00:03.859Z,1013.11
2023-02-22T09:01:03.925Z,1013.14
2023-02-22T09:02:03.913Z,1013.17
2023-02-22T09:03:03.846Z,1013.13
2023-02-22T09:04:03.842Z,1013.12
2023-02-22T09:05:03.838Z,1013.13
2023-02-22T09:06:03.937Z,1013.11
2023-02-22T09:07:03.838Z,1013.14
2023-02-22T09:08:03.840Z,1013.13
2023-02-22T09:09:03.832Z,1013.13
2023-02-22T09:10:03.828Z,1013.15
2023-02-22T09:11:03.821Z,1013.09
2023-02-22T09:12:03.832Z,1013.10
2023-02-22T09:13:03.815Z,1013.12
2023-02-22T09:14:03.825Z,1013.10
2023-02-22T09:15:03.810Z,1013.12
2023-02-22T09:16:03.816Z,1013.14
2023-02-22T09:17:05.777Z,1013.15
2023-02-22T09:18:03.808Z,1013.20
2023-02-22T09:19:03.800Z,1013.22
2023-02-22T09:20:03.804Z,1013.22
2023-02-22T09:21:03.796Z,1013.23
2023-02-22T09:22:03.799Z,1013.22
2023-02-22T09:23:03.802Z,1013.23
2023-02-22T09:24:03.800Z,1013.20
2023-02-22T09:25:15.976Z,1013.19
2023-02-22T09:26:03.786Z,1013.23
2023-02-22T09:27:03.786Z,1013.23
2023-02-22T09:28:03.799Z,1013.22
2023-02-22T09:29:03.779Z,1013.26
2023-02-22T09:30:03.788Z,1013.24
2023-02-22T09:31:03.775Z,1013.28
2023-02-22T09:32:03.973Z,1013.22
2023-02-22T09:33:03.984Z,1013.25
2023-02-22T09:34:04.372Z,1013.23
2023-02-22T09:35:03.766Z,1013.25
2023-02-22T09:36:03.770Z,1013.23
2023-02-22T09:37:03.764Z,1013.21
2023-02-22T09:38:03.760Z,1013.22
2023-02-22T09:39:03.756Z,1013.21
2023-02-22T09:40:03.820Z,1013.25
2023-02-22T09:41:03.753Z,1013.24
2023-02-22T09:42:03.753Z,1013.23
2023-02-22T09:43:03.772Z,1013.23
2023-02-22T09:44:03.752Z,1013.25
2023-02-22T09:45:03.748Z,1013.16
2023-02-22T09:46:03.796Z,1013.19
2023-02-22T09:47:03.760Z,1013.15
2023-02-22T09:48:20.805Z,1013.17
2023-02-22T09:49:03.773Z,1013.11
2023-02-22T09:50:03.741Z,1013.13
2023-02-22T09:51:03.738Z,1013.13
2023-02-22T09:52:03.739Z,1013.11
2023-02-22T09:53:03.735Z,1013.11
2023-02-22T09:54:03.728Z,1013.13
2023-02-22T09:55:03.734Z,1013.09
2023-02-22T09:56:03.723Z,1013.09
2023-02-22T09:57:03.719Z,1013.07
2023-02-22T09:58:03.725Z,1013.10
2023-02-22T09:59:03.731Z,1013.13
2023-02-22T10:00:03.717Z,1013.08
2023-02-22T10:01:03.720Z,1013.08
2023-02-22T10:02:03.728Z,1013.08
2023-02-22T10:03:03.738Z,1013.05
2023-02-22T10:04:03.725Z,1013.05
2023-02-22T10:05:03.845Z,1013.01
2023-02-22T10:06:03.720Z,1013.03
2023-02-22T10:07:03.703Z,1013.05
2023-02-22T10:08:03.723Z,1013.03
2023-02-22T10:09:03.697Z,1013.02
2023-02-22T10:10:03.704Z,1013.02
2023-02-22T10:11:03.705Z,1012.99
2023-02-22T10:12:03.708Z,1013.03
2023-02-22T10:13:03.708Z,1013.00
2023-02-22T10:14:03.708Z,1013.04
2023-02-22T10:15:03.686Z,1013.00
2023-02-22T10:16:03.703Z,1013.03
2023-02-22T10:17:03.689Z,1013.03
2023-02-22T10:18:03.689Z,1013.05
2023-02-22T10:19:03.686Z,1013.02
2023-02-22T10:20:03.686Z,1013.01
2023-02-22T10:21:03.705Z,1013.01
2023-02-22T10:22:03.683Z,1013.03
2023-02-22T10:23:03.679Z,1013.01
2023-02-22T10:24:04.066Z,1012.98
2023-02-22T10:25:03.669Z,1013.03
2023-02-22T10:26:03.677Z,1012.98
2023-02-22T10:27:03.672Z,1012.99
2023-02-22T10:28:03.847Z,1013.00
2023-02-22T10:29:03.669Z,1013.00
2023-02-22T10:30:12.728Z,1012.98
2023-02-22T10:31:03.878Z,1012.94
2023-02-22T10:32:03.792Z,1012.98
2023-02-22T10:33:03.663Z,1012.93
2023-02-22T10:34:03.670Z,1012.93
2023-02-22T10:35:03.668Z,1012.96
2023-02-22T10:36:03.659Z,1012.94
2023-02-22T10:37:03.685Z,1012.92
2023-02-22T10:38:03.655Z,1012.92
2023-02-22T10:39:03.659Z,1012.91
2023-02-22T10:40:03.661Z,1012.89
2023-02-22T10:41:03.658Z,1012.92
2023-02-22T10:42:03.650Z,1012.92
2023-02-22T10:43:03.663Z,1012.91
2023-02-22T10:44:03.648Z,1012.89
2023-02-22T10:45:03.648Z,1012.90
2023-02-22T10:46:03.722Z,1012.89
2023-02-22T10:47:03.657Z,1012.84
2023-02-22T10:48:03.644Z,1012.87
2023-02-22T10:49:03.653Z,1012.88
2023-02-22T10:50:03.653Z,1012.85
2023-02-22T10:51:03.657Z,1012.91
2023-02-22T10:52:03.668Z,1012.86
2023-02-22T10:53:03.781Z,1012.85
2023-02-22T10:54:03.639Z,1012.89
2023-02-22T10:55:15.046Z,1012.88
2023-02-22T10:56:03.674Z,1012.87
2023-02-22T10:57:03.643Z,1012.86
2023-02-22T10:58:03.640Z,1012.89
2023-02-22T10:59:03.636Z,1012.88
2023-02-22T11:00:03.636Z,1012.84
2023-02-22T11:01:03.683Z,1012.84
2023-02-22T11:02:03.630Z,1012.87
2023-02-22T11:03:03.642Z,1012.86
2023-02-22T11:04:03.630Z,1012.91
2023-02-22T11:05:03.634Z,1012.85
2023-02-22T11:06:05.728Z,1012.85
2023-02-22T11:07:03.638Z,1012.86
2023-02-22T11:08:03.620Z,1012.87
2023-02-22T11:09:03.643Z,1012.83
2023-02-22T11:10:03.617Z,1012.81
2023-02-22T11:11:03.624Z,1012.78
2023-02-22T11:12:03.614Z,1012.76
2023-02-22T11:13:03.617Z,1012.77
2023-02-22T11:14:03.613Z,1012.76
2023-02-22T11:15:03.614Z,1012.74
2023-02-22T11:16:03.613Z,1012.76
2023-02-22T11:17:03.616Z,1012.77
2023-02-22T11:18:03.614Z,1012.75
2023-02-22T11:19:03.620Z,1012.78
2023-02-22T11:20:03.606Z,1012.77
2023-02-22T11:21:03.604Z,1012.75
2023-02-22T11:22:03.602Z,1012.74
2023-02-22T11:23:03.615Z,1012.72
2023-02-22T11:24:03.600Z,1012.74
2023-02-22T11:25:03.626Z,1012.78
2023-02-22T11:26:03.601Z,1012.76
2023-02-22T11:27:03.602Z,1012.75
2023-02-22T11:28:03.595Z,1012.73
2023-02-22T11:29:03.598Z,1012.71
2023-02-22T11:30:05.803Z,1012.73
2023-02-22T11:31:03.798Z,1012.71
2023-02-22T11:32:03.631Z,1012.69
2023-02-22T11:33:03.594Z,1012.69
2023-02-22T11:34:03.587Z,1012.63
2023-02-22T11:35:09.137Z,1012.62
2023-02-22T11:36:03.588Z,1012.65
2023-02-22T11:37:03.583Z,1012.61
2023-02-22T11:38:03.586Z,1012.60
2023-02-22T11:39:03.588Z,1012.61
2023-02-22T11:40:03.579Z,1012.55
2023-02-22T11:41:03.608Z,1012.63
2023-02-22T11:42:03.579Z,1012.58
2023-02-22T11:43:03.580Z,1012.55
2023-02-22T11:44:03.572Z,1012.50
2023-02-22T11:45:03.579Z,1012.58
2023-02-22T11:46:03.624Z,1012.57
2023-02-22T11:47:03.598Z,1012.50
2023-02-22T11:48:03.570Z,1012.53
2023-02-22T11:49:03.570Z,1012.48
2023-02-22T11:50:03.574Z,1012.44
2023-02-22T11:51:03.599Z,1012.45
2023-02-22T11:52:03.568Z,1012.42
2023-02-22T11:53:03.576Z,1012.44
2023-02-22T11:54:03.573Z,1012.39
2023-02-22T11:55:03.564Z,1012.39
2023-02-22T11:56:03.558Z,1012.38
2023-02-22T11:57:03.635Z,1012.37
2023-02-22T11:58:03.561Z,1012.36
2023-02-22T11:59:03.564Z,1012.33
2023-02-22T12:00:03.567Z,1012.37
2023-02-22T12:01:03.559Z,1012.31
2023-02-22T12:02:03.556Z,1012.33
2023-02-22T12:03:03.557Z,1012.31
2023-02-22T12:04:03.722Z,1012.29
2023-02-22T12:05:03.601Z,1012.31